createdAt,value
2022-08-21T00:00:29.921Z,70.26
2022-08-21T00:01:15.924Z,70.29
2022-08-21T00:01:49.457Z,70.17
2022-08-21T00:02:26.986Z,70.11
2022-08-21T00:03:06.678Z,70.25
2022-08-21T00:03:40.567Z,70.26
2022-08-21T00:04:20.915Z,70.36
2022-08-21T00:04:57.965Z,70.35
2022-08-21T00:05:34.304Z,70.32
2022-08-21T00:06:07.874Z,70.27
2022-08-21T00:06:47.322Z,70.26
2022-08-21T00:07:20.815Z,70.25
2022-08-21T00:07:54.983Z,70.15
2022-08-21T00:08:28.241Z,70.19
2022-08-21T00:09:06.291Z,70.13
2022-08-21T00:09:41.710Z,70.18
2022-08-21T00:10:16.284Z,70.07
2022-08-21T00:10:49.832Z,70.05
2022-08-21T00:11:23.076Z,69.95
2022-08-21T00:11:56.290Z,69.89
2022-08-21T00:12:29.653Z,69.73
2022-08-21T00:13:06.316Z,69.84
2022-08-21T00:13:39.907Z,69.71
2022-08-21T00:14:14.708Z,69.62
2022-08-21T00:14:48.788Z,69.68
2022-08-21T00:15:30.679Z,69.75
2022-08-21T00:16:05.468Z,69.74
2022-08-21T00:16:39.867Z,69.63
2022-08-21T00:17:13.096Z,69.76
2022-08-21T00:17:46.455Z,69.79
2022-08-21T00:18:21.351Z,69.91
2022-08-21T00:18:54.679Z,70.02
2022-08-21T00:19:28.511Z,70.14
2022-08-21T00:20:02.121Z,70.22
2022-08-21T00:20:36.308Z,70.24
2022-08-21T00:21:09.741Z,70.35
2022-08-21T00:21:44.306Z,70.52
2022-08-21T00:22:19.071Z,70.63
2022-08-21T00:22:54.217Z,70.72
2022-08-21T00:23:28.609Z,70.81
2022-08-21T00:24:02.478Z,70.76
2022-08-21T00:24:35.950Z,70.76
2022-08-21T00:25:11.014Z,70.84
2022-08-21T00:25:45.690Z,70.85
2022-08-21T00:26:20.652Z,70.75
2022-08-21T00:26:54.419Z,70.72
2022-08-21T00:27:27.540Z,70.70
2022-08-21T00:28:00.649Z,70.71
2022-08-21T00:28:33.906Z,70.31
2022-08-21T00:29:07.095Z,70.00
2022-08-21T00:29:40.195Z,70.05
2022-08-21T00:30:17.713Z,70.05
2022-08-21T00:30:57.789Z,70.01
2022-08-21T00:31:31.136Z,69.84
2022-08-21T00:32:04.592Z,69.74
2022-08-21T00:32:40.099Z,69.59
2022-08-21T00:33:14.485Z,69.61
2022-08-21T00:33:47.738Z,69.67
2022-08-21T00:34:21.069Z,69.82
2022-08-21T00:34:54.873Z,69.88
2022-08-21T00:35:33.737Z,70.08
2022-08-21T00:36:07.151Z,70.22
2022-08-21T00:36:40.783Z,70.30
2022-08-21T00:37:17.475Z,70.23
2022-08-21T00:37:50.889Z,70.10
2022-08-21T00:38:24.769Z,69.99
2022-08-21T00:38:58.489Z,69.75
2022-08-21T00:39:32.003Z,69.60
2022-08-21T00:40:08.258Z,69.55
2022-08-21T00:40:49.290Z,69.67
2022-08-21T00:41:38.648Z,69.61
2022-08-21T00:42:16.214Z,69.76
2022-08-21T00:42:53.461Z,69.79
2022-08-21T00:43:31.665Z,69.67
2022-08-21T00:44:06.730Z,69.60
2022-08-21T00:44:39.874Z,69.69
2022-08-21T00:45:13.561Z,69.67
2022-08-21T00:45:47.477Z,69.66
2022-08-21T00:46:21.319Z,69.78
2022-08-21T00:46:58.479Z,69.71
2022-08-21T00:47:31.718Z,69.85
2022-08-21T00:48:06.001Z,69.82
2022-08-21T00:48:39.136Z,69.85
2022-08-21T00:49:14.457Z,69.80
2022-08-21T00:49:47.609Z,69.78
2022-08-21T00:50:22.370Z,69.83
2022-08-21T00:51:03.705Z,69.87
2022-08-21T00:51:57.067Z,69.93
2022-08-21T00:52:33.763Z,69.95
2022-08-21T00:53:09.228Z,69.78
2022-08-21T00:53:48.042Z,69.74
2022-08-21T00:54:29.553Z,69.78
2022-08-21T00:55:04.098Z,69.72
2022-08-21T00:55:38.521Z,69.67
2022-08-21T00:56:14.756Z,69.66
2022-08-21T00:56:54.153Z,69.67
2022-08-21T00:57:35.222Z,69.74
2022-08-21T00:58:10.740Z,69.65
2022-08-21T00:58:44.322Z,69.68
2022-08-21T00:59:20.616Z,69.66
2022-08-21T00:59:56.670Z,69.71
2022-08-21T01:00:34.328Z,69.88
2022-08-21T01:01:09.110Z,69.87
2022-08-21T01:01:42.364Z,69.92
2022-08-21T01:02:19.514Z,69.90
2022-08-21T01:02:52.854Z,69.93
2022-08-21T01:03:26.713Z,70.08
2022-08-21T01:03:59.947Z,70.03
2022-08-21T01:04:33.551Z,69.98
2022-08-21T01:05:07.923Z,69.95
2022-08-21T01:05:41.797Z,70.01
2022-08-21T01:06:14.942Z,70.02
2022-08-21T01:06:48.088Z,69.91
2022-08-21T01:07:21.382Z,70.05
2022-08-21T01:07:58.226Z,70.12
2022-08-21T01:08:32.534Z,70.13
2022-08-21T01:09:05.851Z,70.15
2022-08-21T01:09:40.076Z,70.03
2022-08-21T01:10:24.004Z,70.01
2022-08-21T01:11:00.623Z,69.98
2022-08-21T01:11:37.219Z,70.03
2022-08-21T01:12:12.870Z,70.04
2022-08-21T01:12:46.363Z,70.00
2022-08-21T01:13:20.765Z,69.86
2022-08-21T01:13:56.926Z,69.85
2022-08-21T01:14:31.240Z,69.82
2022-08-21T01:15:06.095Z,69.75
2022-08-21T01:15:43.529Z,69.56
2022-08-21T01:16:20.100Z,69.58
2022-08-21T01:16:55.648Z,69.60
2022-08-21T01:17:29.888Z,69.69
2022-08-21T01:18:09.881Z,69.73
2022-08-21T01:18:43.725Z,69.92
2022-08-21T01:19:19.521Z,69.91
2022-08-21T01:19:52.806Z,70.07
2022-08-21T01:20:32.752Z,70.12
2022-08-21T01:21:28.289Z,70.13
2022-08-21T01:22:01.773Z,70.15
2022-08-21T01:22:35.661Z,70.17
2022-08-21T01:23:08.980Z,70.30
2022-08-21T01:23:45.514Z,70.32
2022-08-21T01:24:19.000Z,70.47
2022-08-21T01:24:52.568Z,70.68
2022-08-21T01:25:25.990Z,70.64
2022-08-21T01:25:59.633Z,70.68
2022-08-21T01:26:38.497Z,70.78
2022-08-21T01:27:12.179Z,70.71
2022-08-21T01:27:45.381Z,70.54
2022-08-21T01:28:19.499Z,70.62
2022-08-21T01:28:58.509Z,70.79
2022-08-21T01:29:35.449Z,70.75
2022-08-21T01:30:22.218Z,70.70
2022-08-21T01:30:56.389Z,70.78
2022-08-21T01:31:30.223Z,70.64
2022-08-21T01:32:14.860Z,70.60
2022-08-21T01:32:49.111Z,70.74
2022-08-21T01:33:25.568Z,70.69
2022-08-21T01:33:59.145Z,70.69
2022-08-21T01:34:35.153Z,70.73
2022-08-21T01:35:09.211Z,70.72
2022-08-21T01:35:42.489Z,70.74
2022-08-21T01:36:15.704Z,70.70
2022-08-21T01:36:49.284Z,70.64
2022-08-21T01:37:23.904Z,70.53
2022-08-21T01:37:57.177Z,70.47
2022-08-21T01:38:30.330Z,70.52
2022-08-21T01:39:06.162Z,70.52
2022-08-21T01:39:39.968Z,70.47
2022-08-21T01:40:14.099Z,70.43
2022-08-21T01:40:47.728Z,70.30
2022-08-21T01:41:21.369Z,70.08
2022-08-21T01:41:54.804Z,70.00
2022-08-21T01:42:28.272Z,69.89
2022-08-21T01:43:01.495Z,69.94
2022-08-21T01:43:39.701Z,69.89
2022-08-21T01:44:13.195Z,69.86
2022-08-21T01:44:46.370Z,69.85
2022-08-21T01:45:20.230Z,69.88
2022-08-21T01:45:53.472Z,69.97
2022-08-21T01:46:26.809Z,69.92
2022-08-21T01:47:03.285Z,69.71
2022-08-21T01:47:37.773Z,69.65
2022-08-21T01:48:10.984Z,69.56
2022-08-21T01:48:44.421Z,69.63
2022-08-21T01:49:18.576Z,69.70
2022-08-21T01:49:51.897Z,69.76
2022-08-21T01:50:25.672Z,69.62
2022-08-21T01:51:00.060Z,69.59
2022-08-21T01:51:33.780Z,69.62
2022-08-21T01:52:09.504Z,69.54
2022-08-21T01:52:43.053Z,69.58
2022-08-21T01:53:16.685Z,69.53
2022-08-21T01:53:49.959Z,69.54
2022-08-21T01:54:23.484Z,69.64
2022-08-21T01:54:56.534Z,69.55
2022-08-21T01:55:29.813Z,69.49
2022-08-21T01:56:12.288Z,69.52
2022-08-21T01:56:49.800Z,69.66
2022-08-21T01:57:26.092Z,69.50
2022-08-21T01:58:00.413Z,69.71
2022-08-21T01:58:34.975Z,69.64
2022-08-21T01:59:09.201Z,69.50
2022-08-21T01:59:42.779Z,69.47
2022-08-21T02:00:20.026Z,69.52
2022-08-21T02:00:53.401Z,69.59
2022-08-21T02:01:27.420Z,69.56
2022-08-21T02:02:00.727Z,69.80
2022-08-21T02:02:33.933Z,69.87
2022-08-21T02:03:07.320Z,69.84
2022-08-21T02:03:40.972Z,69.88
2022-08-21T02:04:14.046Z,69.81
2022-08-21T02:04:47.219Z,69.58
2022-08-21T02:05:20.898Z,69.46
2022-08-21T02:05:54.029Z,69.32
2022-08-21T02:06:28.975Z,69.21
2022-08-21T02:07:03.424Z,69.18
2022-08-21T02:07:41.970Z,69.04
2022-08-21T02:08:15.124Z,68.88
2022-08-21T02:08:48.557Z,68.86
2022-08-21T02:09:22.878Z,68.78
2022-08-21T02:09:57.609Z,68.77
2022-08-21T02:10:33.481Z,68.85
2022-08-21T02:11:06.823Z,68.76
2022-08-21T02:11:41.688Z,68.76
2022-08-21T02:12:14.979Z,68.93
2022-08-21T02:12:48.176Z,69.09
2022-08-21T02:13:21.674Z,69.16
2022-08-21T02:13:54.795Z,69.24
2022-08-21T02:14:32.870Z,69.38
2022-08-21T02:15:08.539Z,69.49
2022-08-21T02:15:41.724Z,69.44
2022-08-21T02:16:19.117Z,69.60
2022-08-21T02:16:52.813Z,69.75
2022-08-21T02:17:40.294Z,69.75
2022-08-21T02:18:13.683Z,69.92
2022-08-21T02:18:47.501Z,69.99
2022-08-21T02:19:20.682Z,70.09
2022-08-21T02:19:53.914Z,70.17
2022-08-21T02:20:36.741Z,70.09
2022-08-21T02:21:10.392Z,70.13
2022-08-21T02:21:44.352Z,70.05
2022-08-21T02:22:17.562Z,69.89
2022-08-21T02:22:50.934Z,69.73
2022-08-21T02:23:27.306Z,69.70
2022-08-21T02:24:00.954Z,69.66
2022-08-21T02:24:34.070Z,69.41
2022-08-21T02:25:08.433Z,69.18
2022-08-21T02:25:41.964Z,68.93
2022-08-21T02:26:15.245Z,68.97
2022-08-21T02:26:48.468Z,68.95
2022-08-21T02:27:26.329Z,69.07
2022-08-21T02:28:03.937Z,69.25
2022-08-21T02:28:39.212Z,69.26
2022-08-21T02:29:12.766Z,69.29
2022-08-21T02:29:46.002Z,69.29
2022-08-21T02:30:24.744Z,69.30
2022-08-21T02:30:58.196Z,69.43
2022-08-21T02:31:32.603Z,69.57
2022-08-21T02:32:05.904Z,69.71
2022-08-21T02:32:38.967Z,69.81
2022-08-21T02:33:13.020Z,69.91
2022-08-21T02:33:46.200Z,70.05
2022-08-21T02:34:19.407Z,70.03
2022-08-21T02:34:52.610Z,70.01
2022-08-21T02:35:26.389Z,69.94
2022-08-21T02:35:59.959Z,69.83
2022-08-21T02:36:33.300Z,69.83
2022-08-21T02:37:06.465Z,69.90
2022-08-21T02:37:49.195Z,69.94
2022-08-21T02:38:30.722Z,69.84
2022-08-21T02:39:04.470Z,69.74
2022-08-21T02:39:37.869Z,69.71
2022-08-21T02:40:12.598Z,69.64
2022-08-21T02:40:51.119Z,69.67
2022-08-21T02:41:24.847Z,69.70
2022-08-21T02:41:58.082Z,69.59
2022-08-21T02:42:33.180Z,69.52
2022-08-21T02:43:07.858Z,69.52
2022-08-21T02:43:41.633Z,69.41
2022-08-21T02:44:14.740Z,69.43
2022-08-21T02:44:48.029Z,69.40
2022-08-21T02:45:21.964Z,69.36
2022-08-21T02:45:57.680Z,69.20
2022-08-21T02:46:31.861Z,69.25
2022-08-21T02:47:05.468Z,69.36
2022-08-21T02:47:38.976Z,69.43
2022-08-21T02:48:15.940Z,69.50
2022-08-21T02:48:49.245Z,69.52
2022-08-21T02:49:22.423Z,69.22
2022-08-21T02:49:55.869Z,69.15
2022-08-21T02:50:32.933Z,68.90
2022-08-21T02:51:10.178Z,68.77
2022-08-21T02:51:43.480Z,68.82
2022-08-21T02:52:16.611Z,68.86
2022-08-21T02:52:51.934Z,68.85
2022-08-21T02:53:30.206Z,68.93
2022-08-21T02:54:03.656Z,69.21
2022-08-21T02:54:36.908Z,69.36
2022-08-21T02:55:10.158Z,69.29
2022-08-21T02:55:46.479Z,69.23
2022-08-21T02:56:22.536Z,69.26
2022-08-21T02:56:55.750Z,69.30
2022-08-21T02:57:29.126Z,69.22
2022-08-21T02:58:03.706Z,69.18
2022-08-21T02:58:50.388Z,69.46
2022-08-21T02:59:23.584Z,69.48
2022-08-21T02:59:56.772Z,69.41
2022-08-21T03:00:32.020Z,69.44
2022-08-21T03:01:06.143Z,69.36
2022-08-21T03:01:39.366Z,69.27
2022-08-21T03:02:12.755Z,69.12
2022-08-21T03:02:47.839Z,69.02
2022-08-21T03:03:22.352Z,69.02
2022-08-21T03:03:55.405Z,68.94
2022-08-21T03:04:28.501Z,69.00
2022-08-21T03:05:01.848Z,69.03
2022-08-21T03:05:38.644Z,68.86
2022-08-21T03:06:16.343Z,68.60
2022-08-21T03:06:49.658Z,68.61
2022-08-21T03:07:23.007Z,68.66
2022-08-21T03:07:56.462Z,68.88
2022-08-21T03:08:29.617Z,69.11
2022-08-21T03:09:02.917Z,69.24
2022-08-21T03:09:36.223Z,69.56
2022-08-21T03:10:10.141Z,69.99
2022-08-21T03:10:47.577Z,70.09
2022-08-21T03:11:22.030Z,70.22
2022-08-21T03:11:55.219Z,70.36
2022-08-21T03:12:29.972Z,70.53
2022-08-21T03:13:04.420Z,70.76
2022-08-21T03:13:37.621Z,70.79
2022-08-21T03:14:10.876Z,70.84
2022-08-21T03:14:44.084Z,70.76
2022-08-21T03:15:20.560Z,70.52
2022-08-21T03:15:53.861Z,70.55
2022-08-21T03:16:27.011Z,70.42
2022-08-21T03:17:00.380Z,70.28
2022-08-21T03:17:34.233Z,70.17
2022-08-21T03:18:08.686Z,70.11
2022-08-21T03:18:42.255Z,70.10
2022-08-21T03:19:15.453Z,70.06
2022-08-21T03:19:48.612Z,70.03
2022-08-21T03:20:28.928Z,70.05
2022-08-21T03:21:02.340Z,70.05
2022-08-21T03:21:35.494Z,70.01
2022-08-21T03:22:09.019Z,69.89
2022-08-21T03:22:42.365Z,69.94
2022-08-21T03:23:22.105Z,69.83
2022-08-21T03:23:55.539Z,69.82
2022-08-21T03:24:28.683Z,69.90
2022-08-21T03:25:02.358Z,69.83
2022-08-21T03:25:41.171Z,69.78
2022-08-21T03:26:14.473Z,69.78
2022-08-21T03:26:49.446Z,69.69
2022-08-21T03:27:23.267Z,69.82
2022-08-21T03:27:59.255Z,69.93
2022-08-21T03:28:33.699Z,69.76
2022-08-21T03:29:08.743Z,69.78
2022-08-21T03:29:42.279Z,69.80
2022-08-21T03:30:17.885Z,70.00
2022-08-21T03:30:52.557Z,70.09
2022-08-21T03:31:30.365Z,70.06
2022-08-21T03:32:04.116Z,70.08
2022-08-21T03:32:37.531Z,70.01
2022-08-21T03:33:12.292Z,70.12
2022-08-21T03:33:48.832Z,69.96
2022-08-21T03:34:22.547Z,69.94
2022-08-21T03:34:55.636Z,69.94
2022-08-21T03:35:30.195Z,69.98
2022-08-21T03:36:07.222Z,70.03
2022-08-21T03:36:40.441Z,70.03
2022-08-21T03:37:15.105Z,69.93
2022-08-21T03:37:48.447Z,69.85
2022-08-21T03:38:26.358Z,69.74
2022-08-21T03:39:00.368Z,69.77
2022-08-21T03:39:34.513Z,69.82
2022-08-21T03:40:14.917Z,69.89
2022-08-21T03:40:48.073Z,69.78
2022-08-21T03:41:21.589Z,69.79
2022-08-21T03:41:55.388Z,69.82
2022-08-21T03:42:28.693Z,69.86
2022-08-21T03:43:01.861Z,69.94
2022-08-21T03:43:35.948Z,69.89
2022-08-21T03:44:09.628Z,69.99
2022-08-21T03:44:42.781Z,70.11
2022-08-21T03:45:18.186Z,70.13
2022-08-21T03:45:52.661Z,70.29
2022-08-21T03:46:26.192Z,70.27
2022-08-21T03:46:59.733Z,70.32
2022-08-21T03:47:33.142Z,70.31
2022-08-21T03:48:07.494Z,70.33
2022-08-21T03:48:41.302Z,70.33
2022-08-21T03:49:14.696Z,70.40
2022-08-21T03:49:47.860Z,70.11
2022-08-21T03:50:21.211Z,69.98
2022-08-21T03:50:55.216Z,69.89
2022-08-21T03:51:28.446Z,69.91
2022-08-21T03:52:02.368Z,69.98
2022-08-21T03:52:35.593Z,70.00
2022-08-21T03:53:17.546Z,70.08
2022-08-21T03:53:51.406Z,70.24
2022-08-21T03:54:24.590Z,70.13
2022-08-21T03:54:57.879Z,70.26
2022-08-21T03:55:31.160Z,70.31
2022-08-21T03:56:05.898Z,70.27
2022-08-21T03:56:40.473Z,70.22
2022-08-21T03:57:13.930Z,70.22
2022-08-21T03:57:47.109Z,70.21
2022-08-21T03:58:24.025Z,70.15
2022-08-21T03:58:57.741Z,70.19
2022-08-21T03:59:31.114Z,70.25
2022-08-21T04:00:06.076Z,70.32
2022-08-21T04:00:39.388Z,70.37
2022-08-21T04:01:13.859Z,70.34
2022-08-21T04:02:02.515Z,70.39
2022-08-21T04:02:35.809Z,70.53
2022-08-21T04:03:08.949Z,70.45
2022-08-21T04:03:42.455Z,70.49
2022-08-21T04:04:15.636Z,70.46
2022-08-21T04:04:48.819Z,70.52
2022-08-21T04:05:31.508Z,70.49
2022-08-21T04:06:06.090Z,70.53
2022-08-21T04:06:39.349Z,70.52
2022-08-21T04:07:12.465Z,70.49
2022-08-21T04:07:45.516Z,70.49
2022-08-21T04:08:20.029Z,70.57
2022-08-21T04:08:54.754Z,70.70
2022-08-21T04:09:28.356Z,70.61
2022-08-21T04:10:01.499Z,70.46
2022-08-21T04:10:39.564Z,70.67
2022-08-21T04:11:12.887Z,70.78
2022-08-21T04:11:47.440Z,70.84
2022-08-21T04:12:22.365Z,70.76
2022-08-21T04:12:56.927Z,70.82
2022-08-21T04:13:30.308Z,70.91
2022-08-21T04:14:04.526Z,70.96
2022-08-21T04:14:38.507Z,70.90
2022-08-21T04:15:12.192Z,70.91
2022-08-21T04:15:45.385Z,71.02
2022-08-21T04:16:19.464Z,71.02
2022-08-21T04:16:52.926Z,70.83
2022-08-21T04:17:26.208Z,70.96
2022-08-21T04:18:00.241Z,70.98
2022-08-21T04:18:33.445Z,71.13
2022-08-21T04:19:06.672Z,71.24
2022-08-21T04:19:39.993Z,71.42
2022-08-21T04:20:13.983Z,71.52
2022-08-21T04:20:51.718Z,71.56
2022-08-21T04:21:25.354Z,71.51
2022-08-21T04:21:58.657Z,71.50
2022-08-21T04:22:31.895Z,71.63
2022-08-21T04:23:05.267Z,71.66
2022-08-21T04:23:38.798Z,71.56
2022-08-21T04:24:12.164Z,71.47
2022-08-21T04:24:46.074Z,71.43
2022-08-21T04:25:21.552Z,71.61
2022-08-21T04:25:56.844Z,71.65
2022-08-21T04:26:30.094Z,71.62
2022-08-21T04:27:03.469Z,71.56
2022-08-21T04:27:36.557Z,71.55
2022-08-21T04:28:09.757Z,71.59
2022-08-21T04:28:42.887Z,71.54
2022-08-21T04:29:17.802Z,71.62
2022-08-21T04:29:51.074Z,71.71
2022-08-21T04:30:28.557Z,71.73
2022-08-21T04:31:02.330Z,71.81
2022-08-21T04:31:40.309Z,71.86
2022-08-21T04:32:13.577Z,71.88
2022-08-21T04:32:51.599Z,71.85
2022-08-21T04:33:25.618Z,72.02
2022-08-21T04:33:58.938Z,72.15
2022-08-21T04:34:33.524Z,72.16
2022-08-21T04:35:10.799Z,72.33
2022-08-21T04:35:44.570Z,72.40
2022-08-21T04:36:18.357Z,72.48
2022-08-21T04:36:56.306Z,72.57
2022-08-21T04:37:29.824Z,72.68
2022-08-21T04:38:02.935Z,72.71
2022-08-21T04:38:37.713Z,72.75
2022-08-21T04:39:11.944Z,72.75
2022-08-21T04:39:45.153Z,72.86
2022-08-21T04:40:21.131Z,72.89
2022-08-21T04:40:55.041Z,72.99
2022-08-21T04:41:28.603Z,72.96
2022-08-21T04:42:02.425Z,72.86
2022-08-21T04:42:43.723Z,72.90
2022-08-21T04:43:17.524Z,72.86
2022-08-21T04:43:51.239Z,72.90
2022-08-21T04:44:24.764Z,72.98
2022-08-21T04:44:58.779Z,72.89
2022-08-21T04:45:37.817Z,72.91
2022-08-21T04:46:13.506Z,72.89
2022-08-21T04:46:47.188Z,72.91
2022-08-21T04:47:21.068Z,72.87
2022-08-21T04:47:56.932Z,72.85
2022-08-21T04:48:30.277Z,72.90
2022-08-21T04:49:03.570Z,72.82
2022-08-21T04:49:37.346Z,72.77
2022-08-21T04:50:10.552Z,72.88
2022-08-21T04:51:03.357Z,72.95
2022-08-21T04:51:39.545Z,73.07
2022-08-21T04:52:17.413Z,73.07
2022-08-21T04:52:50.733Z,72.94
2022-08-21T04:53:33.280Z,72.91
2022-08-21T04:54:15.943Z,72.90
2022-08-21T04:54:54.811Z,72.93
2022-08-21T04:55:29.655Z,72.89
2022-08-21T04:56:09.480Z,72.96
2022-08-21T04:57:09.330Z,72.95
2022-08-21T04:57:48.732Z,72.84
2022-08-21T04:58:26.673Z,72.64
2022-08-21T04:59:04.380Z,72.67
2022-08-21T04:59:42.169Z,72.71
2022-08-21T05:00:16.211Z,72.70
2022-08-21T05:00:49.996Z,72.65
2022-08-21T05:01:25.950Z,72.64
2022-08-21T05:01:59.814Z,72.55
2022-08-21T05:02:34.399Z,72.39
2022-08-21T05:03:10.079Z,72.43
2022-08-21T05:03:43.692Z,72.55
2022-08-21T05:04:23.760Z,72.61
2022-08-21T05:04:57.132Z,72.80
2022-08-21T05:05:30.730Z,72.82
2022-08-21T05:06:10.684Z,72.86
2022-08-21T05:06:48.438Z,72.75
2022-08-21T05:07:41.620Z,72.72
2022-08-21T05:08:20.714Z,72.78
2022-08-21T05:09:01.780Z,72.86
2022-08-21T05:09:36.485Z,72.85
2022-08-21T05:10:12.542Z,73.04
2022-08-21T05:10:46.717Z,73.05
2022-08-21T05:11:21.382Z,73.05
2022-08-21T05:11:55.870Z,73.04
2022-08-21T05:12:29.007Z,73.06
2022-08-21T05:13:02.413Z,73.16
2022-08-21T05:13:37.111Z,73.23
2022-08-21T05:14:12.651Z,73.07
2022-08-21T05:14:46.014Z,73.03
2022-08-21T05:15:19.175Z,72.96
2022-08-21T05:15:52.463Z,72.93
2022-08-21T05:16:36.760Z,72.86
2022-08-21T05:17:12.110Z,72.91
2022-08-21T05:17:52.555Z,72.96
2022-08-21T05:18:34.922Z,72.93
2022-08-21T05:19:08.558Z,72.81
2022-08-21T05:19:41.745Z,72.76
2022-08-21T05:20:16.030Z,72.65
2022-08-21T05:20:49.213Z,72.56
2022-08-21T05:21:22.382Z,72.43
2022-08-21T05:21:56.374Z,72.34
2022-08-21T05:22:29.685Z,72.28
2022-08-21T05:23:11.266Z,72.23
2022-08-21T05:23:44.458Z,72.22
2022-08-21T05:24:19.580Z,72.17
2022-08-21T05:24:53.956Z,72.19
2022-08-21T05:25:28.221Z,72.17
2022-08-21T05:26:02.443Z,72.35
2022-08-21T05:26:45.490Z,72.46
2022-08-21T05:27:20.494Z,72.42
2022-08-21T05:27:54.688Z,72.49
2022-08-21T05:28:28.309Z,72.40
2022-08-21T05:29:01.574Z,72.35
2022-08-21T05:29:35.643Z,72.23
2022-08-21T05:30:11.543Z,72.02
2022-08-21T05:30:45.542Z,71.99
2022-08-21T05:31:19.130Z,72.10
2022-08-21T05:31:52.304Z,72.22
2022-08-21T05:32:26.632Z,72.08
2022-08-21T05:33:01.598Z,72.04
2022-08-21T05:33:34.941Z,71.97
2022-08-21T05:34:09.367Z,71.94
2022-08-21T05:34:43.474Z,72.02
2022-08-21T05:35:16.819Z,72.19
2022-08-21T05:35:56.846Z,72.35
2022-08-21T05:36:30.117Z,72.40
2022-08-21T05:37:07.563Z,72.46
2022-08-21T05:37:41.556Z,72.47
2022-08-21T05:38:16.630Z,72.45
2022-08-21T05:38:51.467Z,72.39
2022-08-21T05:39:24.649Z,71.80
2022-08-21T05:40:09.600Z,71.50
2022-08-21T05:40:51.097Z,71.44
2022-08-21T05:41:24.351Z,71.40
2022-08-21T05:41:57.942Z,71.29
2022-08-21T05:42:31.942Z,71.26
2022-08-21T05:43:05.355Z,71.26
2022-08-21T05:43:38.805Z,71.26
2022-08-21T05:44:12.420Z,71.08
2022-08-21T05:44:45.546Z,70.91
2022-08-21T05:45:18.960Z,71.03
2022-08-21T05:46:12.740Z,71.22
2022-08-21T05:46:45.969Z,71.01
2022-08-21T05:47:19.950Z,70.81
2022-08-21T05:47:53.271Z,70.65
2022-08-21T05:48:26.563Z,70.31
2022-08-21T05:48:59.878Z,70.30
2022-08-21T05:49:33.439Z,70.34
2022-08-21T05:50:07.337Z,69.95
2022-08-21T05:50:41.316Z,70.07
2022-08-21T05:51:16.528Z,69.72
2022-08-21T05:51:49.927Z,69.74
2022-08-21T05:52:23.457Z,69.77
2022-08-21T05:52:58.417Z,69.60
2022-08-21T05:53:43.282Z,69.48
2022-08-21T05:54:16.683Z,69.58
2022-08-21T05:54:55.084Z,69.68
2022-08-21T05:55:28.426Z,69.81
2022-08-21T05:56:08.075Z,69.85
2022-08-21T05:56:41.267Z,69.98
2022-08-21T05:57:14.483Z,70.06
2022-08-21T05:57:47.602Z,70.20
2022-08-21T05:58:24.388Z,69.77
2022-08-21T05:58:57.673Z,69.58
2022-08-21T05:59:30.942Z,69.66
2022-08-21T06:00:05.722Z,69.76
2022-08-21T06:00:39.056Z,69.98
2022-08-21T06:01:12.258Z,70.17
2022-08-21T06:01:46.658Z,70.05
2022-08-21T06:02:21.467Z,69.93
2022-08-21T06:02:54.836Z,69.90
2022-08-21T06:03:31.637Z,69.61
2022-08-21T06:04:04.829Z,69.56
2022-08-21T06:04:40.149Z,69.64
2022-08-21T06:05:13.758Z,69.84
2022-08-21T06:05:58.468Z,69.81
2022-08-21T06:06:31.854Z,69.73
2022-08-21T06:07:05.314Z,69.57
2022-08-21T06:07:38.733Z,69.48
2022-08-21T06:08:12.218Z,69.31
2022-08-21T06:08:45.913Z,69.03
2022-08-21T06:09:19.001Z,68.94
2022-08-21T06:09:52.160Z,68.95
2022-08-21T06:10:25.545Z,68.90
2022-08-21T06:11:01.115Z,68.95
2022-08-21T06:11:34.653Z,68.91
2022-08-21T06:12:13.131Z,68.80
2022-08-21T06:12:46.371Z,68.80
2022-08-21T06:13:21.087Z,68.81
2022-08-21T06:13:54.627Z,68.89
2022-08-21T06:14:27.795Z,68.94
2022-08-21T06:15:01.149Z,68.69
2022-08-21T06:15:36.109Z,68.16
2022-08-21T06:16:16.412Z,68.10
2022-08-21T06:16:50.426Z,68.24
2022-08-21T06:17:24.549Z,68.38
2022-08-21T06:17:57.826Z,68.16
2022-08-21T06:18:31.128Z,67.94
2022-08-21T06:19:04.771Z,67.90
2022-08-21T06:19:38.934Z,67.32
2022-08-21T06:20:12.272Z,67.13
2022-08-21T06:20:45.638Z,67.06
2022-08-21T06:21:19.523Z,67.19
2022-08-21T06:21:53.309Z,67.53
2022-08-21T06:22:26.784Z,67.70
2022-08-21T06:23:01.123Z,67.81
2022-08-21T06:23:35.296Z,67.86
2022-08-21T06:24:08.919Z,67.84
2022-08-21T06:24:44.926Z,67.59
2022-08-21T06:25:18.499Z,67.07
2022-08-21T06:25:51.862Z,66.96
2022-08-21T06:26:25.451Z,66.93
2022-08-21T06:26:59.005Z,66.58
2022-08-21T06:27:32.241Z,66.59
2022-08-21T06:28:11.231Z,66.52
2022-08-21T06:28:45.019Z,66.69
2022-08-21T06:29:18.886Z,66.68
2022-08-21T06:29:54.442Z,66.76
2022-08-21T06:30:27.769Z,66.65
2022-08-21T06:31:01.750Z,66.15
2022-08-21T06:31:35.097Z,66.03
2022-08-21T06:32:11.900Z,66.02
2022-08-21T06:32:45.727Z,65.75
2022-08-21T06:33:19.099Z,65.80
2022-08-21T06:33:52.488Z,65.94
2022-08-21T06:34:25.874Z,66.08
2022-08-21T06:34:59.032Z,66.26
2022-08-21T06:35:32.477Z,66.29
2022-08-21T06:36:06.093Z,66.40
2022-08-21T06:36:40.164Z,66.44
2022-08-21T06:37:14.176Z,66.47
2022-08-21T06:37:48.403Z,66.60
2022-08-21T06:38:22.418Z,66.70
2022-08-21T06:38:57.862Z,66.31
2022-08-21T06:39:33.687Z,65.51
2022-08-21T06:40:12.617Z,65.24
2022-08-21T06:40:47.652Z,65.17
2022-08-21T06:41:24.332Z,65.22
2022-08-21T06:42:01.305Z,65.33
2022-08-21T06:42:37.308Z,65.29
2022-08-21T06:43:15.485Z,64.89
2022-08-21T06:43:48.945Z,64.83
2022-08-21T06:44:22.712Z,64.69
2022-08-21T06:44:58.102Z,64.47
2022-08-21T06:45:32.581Z,64.24
2022-08-21T06:46:06.310Z,64.24
2022-08-21T06:46:39.528Z,64.23
2022-08-21T06:47:13.145Z,64.17
2022-08-21T06:47:46.449Z,64.15
2022-08-21T06:48:19.779Z,64.38
2022-08-21T06:48:53.781Z,64.58
2022-08-21T06:49:27.553Z,64.71
2022-08-21T06:50:01.041Z,64.76
2022-08-21T06:50:35.307Z,64.83
2022-08-21T06:51:08.767Z,65.01
2022-08-21T06:51:42.262Z,65.10
2022-08-21T06:52:15.796Z,64.94
2022-08-21T06:52:49.002Z,64.94
2022-08-21T06:53:23.068Z,64.86
2022-08-21T06:53:56.293Z,64.82
2022-08-21T06:54:33.800Z,64.80
2022-08-21T06:55:09.983Z,64.80
2022-08-21T06:55:44.340Z,64.64
2022-08-21T06:56:17.550Z,64.25
2022-08-21T06:56:50.691Z,64.17
2022-08-21T06:57:23.913Z,64.26
2022-08-21T06:57:57.169Z,64.42
2022-08-21T06:58:30.650Z,64.26
2022-08-21T06:59:04.309Z,64.07
2022-08-21T06:59:37.689Z,64.04
2022-08-21T07:00:12.018Z,64.09
2022-08-21T07:00:48.238Z,64.24
2022-08-21T07:01:25.867Z,64.26
2022-08-21T07:02:01.215Z,64.00
2022-08-21T07:02:35.110Z,63.91
2022-08-21T07:03:09.011Z,63.93
2022-08-21T07:03:44.682Z,64.13
2022-08-21T07:04:18.150Z,64.26
2022-08-21T07:04:52.322Z,64.42
2022-08-21T07:05:30.479Z,64.46
2022-08-21T07:06:05.236Z,64.17
2022-08-21T07:06:38.575Z,63.44
2022-08-21T07:07:11.922Z,63.16
2022-08-21T07:07:45.753Z,63.34
2022-08-21T07:08:19.329Z,63.29
2022-08-21T07:08:52.709Z,63.40
2022-08-21T07:09:28.083Z,62.95
2022-08-21T07:10:01.243Z,62.87
2022-08-21T07:10:34.537Z,62.97
2022-08-21T07:11:15.986Z,63.22
2022-08-21T07:11:52.861Z,63.55
2022-08-21T07:12:27.260Z,63.73
2022-08-21T07:13:01.644Z,63.83
2022-08-21T07:13:34.966Z,63.99
2022-08-21T07:14:08.290Z,64.05
2022-08-21T07:14:41.607Z,64.21
2022-08-21T07:15:14.775Z,63.99
2022-08-21T07:15:47.999Z,63.78
2022-08-21T07:16:22.790Z,63.82
2022-08-21T07:16:56.153Z,63.58
2022-08-21T07:17:29.569Z,63.25
2022-08-21T07:18:03.138Z,62.99
2022-08-21T07:18:36.783Z,62.86
2022-08-21T07:19:10.057Z,62.74
2022-08-21T07:19:43.290Z,62.91
2022-08-21T07:20:16.692Z,62.92
2022-08-21T07:20:50.408Z,63.01
2022-08-21T07:21:25.918Z,63.09
2022-08-21T07:22:02.822Z,62.94
2022-08-21T07:22:39.007Z,62.89
2022-08-21T07:23:17.585Z,62.81
2022-08-21T07:23:52.713Z,62.79
2022-08-21T07:24:26.264Z,62.19
2022-08-21T07:24:59.986Z,62.07
2022-08-21T07:25:33.882Z,62.11
2022-08-21T07:26:07.330Z,62.28
2022-08-21T07:26:41.244Z,62.68
2022-08-21T07:27:14.826Z,62.50
2022-08-21T07:27:49.381Z,62.21
2022-08-21T07:28:22.950Z,62.10
2022-08-21T07:28:56.489Z,62.14
2022-08-21T07:29:29.867Z,62.09
2022-08-21T07:30:03.873Z,62.01
2022-08-21T07:30:37.196Z,61.68